KAVXKHAF

Guest
Details From KAVX - Catalina
To KHAF - HALF MOON BAY
Flight Number -
Tags generated
Created
Modified
Stats Distance 319 nm / 591 km
Max Altitude 32,800 ft / 9,997 m
Waypoints 9
Social Downloads 0
Likes 0
Share VATSIM

Download

Looking for another format? Having issues loading an existing format? Contact us
Advertisement - Login to hide

Notes

Basic altitude profile: - Ascent Rate: 1200ft/min - Ascent Speed: 100kts - Cruise Altitude: 7000ft - Cruise Speed: 140kts - Descent Rate: 1200ft/min - Descent Speed: 150kts Options: - Use NATs: no - Use PACOTS: no - Use low airways: yes - Use high airways: no

Route

KAVX RZS V25 WIGGL KHAF

ID Type Via Altitude Latitude Longitude Leg Dist Tot Dist Heading (true) Name
O KAVX APT - 0 ft / 0 m 33.40466˚ -118.41588˚ - 0 nm - Catalina
RZS VOR - 32,800 ft / 9,997 m 34.50953˚ -119.77100˚ 94 nm 94 nm 315° / 314° SAN MARCUS VORTAC
WYNNR FIX V25 (AWY-LO) 18,000 ft / 5,486 m 35.11772˚ -120.21511˚ 42 nm 137 nm 329° / 329° -
POZOE FIX V25 (AWY-LO) 18,000 ft / 5,486 m 35.16181˚ -120.24762˚ 3 nm 140 nm 329° / 329° -
KIKII FIX V25 (AWY-LO) 18,000 ft / 5,486 m 35.44444˚ -120.45695˚ 19 nm 160 nm 329° / 329° -
PRB DME V25 (AWY-LO) 18,000 ft / 5,486 m 35.67246˚ -120.62711˚ 16 nm 176 nm 329° / 329° PASO ROBLES VORTAC
LUCAB FIX V25 (AWY-LO) 18,000 ft / 5,486 m 36.01685˚ -120.96245˚ 26 nm 202 nm 322° / 322° -
WIGGL FIX V25 (AWY-LO) 18,000 ft / 5,486 m 36.42140˚ -121.36145˚ 31 nm 233 nm 322° / 321° -
O KHAF APT - 0 ft / 0 m 37.51343˚ -122.50116˚ 85 nm 318 nm 321° / 320° HALF MOON BAY

Altitude Profile

Advertisement - Login to hide

Weather


0- 5 10 15 20 25 30 35+ Temperature / ° C

Clouds and Precipitation
Forecast for 2017-12-15 00:00 UTC. Updated 2 hours ago

Ground ~20,000 ft ~40,000 ft Winds

KAVX

Details ICAO KAVX (AVX)
Name Catalina
Region United States
Timezone America/Los_Angeles (UTC-8.0)
Stats Elevation 1,601 ft / 488 m (AMSL)
Location 33.404656° -118.415880°
Runways 1
Magnetic Variation 11.901° E

METAR

KAVX 141951Z AUTO 10012KT 10SM CLR 23/M06 A3005 RMK AO2 SLP153 T02281061

Decode

TAF

Not found

Departure Runways

ID Width Length Bearing (true) Bearing (mag) Surface Threshold Offset Overrun Length
04 59 ft / 18 m 3,127 ft / 953 m 54.93° 43.03° Asphalt 131 ft / 40 m 0 ft / 0 m
22 59 ft / 18 m 3,127 ft / 953 m 234.93° 223.03° Asphalt 62 ft / 19 m 0 ft / 0 m

KHAF

Details ICAO KHAF
Name HALF MOON BAY
Region United States
Timezone America/Los_Angeles (UTC-8.0)
Stats Elevation 66 ft / 20 m (AMSL)
Location 37.513435° -122.501163°
Runways 1
Magnetic Variation 13.460° E

METAR

KHAF 142035Z AUTO 16007KT 8SM CLR 19/07 A3005 RMK AO2

Decode

TAF

Not found

Destination Runways

ID Width Length Bearing (true) Bearing (mag) Surface Threshold Offset Overrun Length
12 151 ft / 46 m 5,005 ft / 1,525 m 137.06° 123.60° Asphalt 764 ft / 233 m 0 ft / 0 m
30 151 ft / 46 m 5,005 ft / 1,525 m 317.06° 303.60° Asphalt 764 ft / 233 m 0 ft / 0 m

Popular Alternatives